KAFK

Details ICAO KAFK
Name NEBRASKA CITY MUNI
Region United States
Timezone America/Chicago (UTC-6.0)
Plans Departing 3
Arriving 4
Stats Elevation 1,162 ft / 354 m (AMSL)
Location 40.606338° -95.867149°
Runways 2
Magnetic Variation 2.526° E
Sunrise 2017-12-12 13:39:29 UTC / 2017-12-12 07:39:29 Local
Sunset 2017-12-12 22:58:02 UTC / 2017-12-12 16:58:02 Local
Advertisement - Login to hide

Runways

ID Width Length Bearing (true) Bearing (mag) Surface Threshold Offset Overrun Length
05 151 ft / 46 m 2,439 ft / 743 m 46.66° 44.13° Grass 0 ft / 0 m 0 ft / 0 m
15 75 ft / 23 m 4,509 ft / 1,374 m 151.60° 149.07° Concrete 0 ft / 0 m 0 ft / 0 m
23 151 ft / 46 m 2,439 ft / 743 m 226.66° 224.13° Grass 0 ft / 0 m 0 ft / 0 m
33 75 ft / 23 m 4,509 ft / 1,374 m 331.60° 329.07° Concrete 0 ft / 0 m 0 ft / 0 m

Map

Weather


0- 5 10 15 20 25 30 35+ Temperature / ° C

Clouds and Precipitation
Forecast for 2017-12-13 00:00 UTC. Updated 14 minutes ago

Ground ~20,000 ft ~40,000 ft Winds

METAR

KAFK 121935Z AUTO 23010KT 10SM OVC039 03/M03 A3019 RMK AO2 T00321035

TAF

Not found

Frequencies

Recorded 128.32 MHz AWOS 3
Approach 120.10 MHz OMAHA APP/DEP
Unicom 122.70 MHz CTAF/UNICOM
Warning: Do not use this data for real-world aviation or navigation. No guarantee of current accuracy is given.